createdAt,value
2017-08-07T00:01:26.849Z,8.30
2017-08-07T00:03:54.296Z,9.67
2017-08-07T00:06:21.621Z,8.47
2017-08-07T00:08:48.929Z,8.10
2017-08-07T00:11:16.268Z,6.40
2017-08-07T00:13:43.589Z,8.90
2017-08-07T00:16:11.002Z,8.77
2017-08-07T00:18:38.310Z,6.97
2017-08-07T00:21:05.635Z,8.03
2017-08-07T00:23:32.953Z,10.13
2017-08-07T00:26:00.286Z,6.73
2017-08-07T00:28:27.640Z,9.10
2017-08-07T00:30:55.061Z,7.30
2017-08-07T00:33:22.402Z,8.33
2017-08-07T00:35:49.711Z,10.73
2017-08-07T00:38:17.021Z,8.03
2017-08-07T00:40:44.339Z,10.57
2017-08-07T00:43:12.167Z,9.00
2017-08-07T00:45:39.512Z,8.30
2017-08-07T00:48:06.841Z,11.40
2017-08-07T00:50:34.203Z,8.80
2017-08-07T00:53:01.559Z,11.00
2017-08-07T00:55:28.867Z,7.33
2017-08-07T00:57:56.200Z,8.13
2017-08-07T01:00:23.499Z,8.13
2017-08-07T01:02:50.796Z,8.53
2017-08-07T01:05:18.138Z,7.60
2017-08-07T01:07:45.461Z,11.73
2017-08-07T01:10:12.777Z,7.50
2017-08-07T01:12:40.090Z,7.73
2017-08-07T01:15:07.390Z,7.27
2017-08-07T01:17:34.709Z,9.93
2017-08-07T01:20:02.069Z,7.47
2017-08-07T01:22:29.376Z,7.37
2017-08-07T01:24:56.668Z,7.33
2017-08-07T01:27:24.001Z,10.07
2017-08-07T01:29:51.361Z,8.87
2017-08-07T01:32:18.670Z,9.57
2017-08-07T01:34:45.966Z,8.50
2017-08-07T01:37:13.272Z,8.57
2017-08-07T01:39:40.621Z,10.53
2017-08-07T01:42:07.949Z,10.70
2017-08-07T01:44:35.257Z,18.33
2017-08-07T01:47:02.555Z,11.60
2017-08-07T01:49:29.865Z,9.03
2017-08-07T01:51:57.187Z,9.40
2017-08-07T01:54:24.490Z,9.60
2017-08-07T01:56:51.833Z,8.73
2017-08-07T01:59:19.127Z,8.73
2017-08-07T02:01:46.423Z,12.67
2017-08-07T02:04:13.721Z,8.17
2017-08-07T02:06:41.047Z,9.40
2017-08-07T02:09:08.341Z,9.00
2017-08-07T02:11:35.645Z,7.90
2017-08-07T02:14:02.959Z,11.00
2017-08-07T02:16:30.260Z,8.90
2017-08-07T02:18:57.553Z,8.87
2017-08-07T02:21:24.891Z,8.43
2017-08-07T02:23:52.232Z,9.43
2017-08-07T02:26:19.854Z,9.10
2017-08-07T02:28:47.145Z,7.47
2017-08-07T02:31:14.483Z,10.23
2017-08-07T02:33:41.803Z,9.47
2017-08-07T02:36:09.162Z,10.03
2017-08-07T02:38:36.474Z,9.43
2017-08-07T02:41:03.778Z,9.10
2017-08-07T02:43:31.072Z,8.83
2017-08-07T02:45:58.393Z,11.03
2017-08-07T02:48:25.705Z,9.77
2017-08-07T02:50:53.019Z,11.10
2017-08-07T02:53:20.351Z,12.87
2017-08-07T02:55:47.662Z,10.23
2017-08-07T02:58:14.972Z,9.77
2017-08-07T03:00:42.269Z,10.93
2017-08-07T03:03:09.587Z,10.47
2017-08-07T03:05:36.932Z,10.70
2017-08-07T03:08:04.279Z,9.73
2017-08-07T03:10:31.904Z,9.27
2017-08-07T03:12:59.234Z,8.70
2017-08-07T03:15:26.520Z,8.40
2017-08-07T03:17:53.827Z,8.80
2017-08-07T03:20:21.137Z,10.40
2017-08-07T03:22:48.424Z,9.10
2017-08-07T03:25:15.751Z,9.50
2017-08-07T03:27:43.051Z,16.00
2017-08-07T03:30:10.368Z,10.37
2017-08-07T03:32:37.669Z,9.23
2017-08-07T03:35:04.981Z,11.40
2017-08-07T03:37:32.277Z,9.50
2017-08-07T03:39:59.612Z,10.17
2017-08-07T03:42:26.947Z,10.40
2017-08-07T03:44:54.289Z,13.10
2017-08-07T03:47:21.625Z,12.17
2017-08-07T03:49:48.937Z,12.30
2017-08-07T03:52:16.228Z,12.27
2017-08-07T03:54:43.555Z,11.17
2017-08-07T03:57:10.894Z,10.67
2017-08-07T03:59:38.229Z,11.77
2017-08-07T04:02:05.927Z,11.80
2017-08-07T04:04:33.220Z,12.60
2017-08-07T04:07:00.582Z,12.93
2017-08-07T04:09:27.903Z,10.90
2017-08-07T04:11:55.256Z,16.57
2017-08-07T04:14:22.548Z,13.80
2017-08-07T04:16:50.035Z,15.00
2017-08-07T04:19:17.664Z,20.63
2017-08-07T04:21:44.971Z,14.60
2017-08-07T04:24:12.283Z,14.10
2017-08-07T04:26:39.626Z,12.03
2017-08-07T04:29:06.948Z,15.40
2017-08-07T04:31:34.285Z,11.13
2017-08-07T04:34:01.630Z,18.70
2017-08-07T04:36:28.974Z,10.93
2017-08-07T04:38:56.298Z,17.93
2017-08-07T04:41:23.661Z,17.93
2017-08-07T04:43:50.989Z,11.07
2017-08-07T04:46:18.359Z,15.83
2017-08-07T04:48:45.647Z,20.03
2017-08-07T04:51:12.961Z,17.73
2017-08-07T04:53:40.455Z,10.33
2017-08-07T04:56:07.805Z,8.60
2017-08-07T04:58:35.138Z,17.50
2017-08-07T05:01:02.467Z,9.43
2017-08-07T05:03:29.796Z,12.50
2017-08-07T05:05:57.076Z,12.37
2017-08-07T05:08:24.410Z,11.30
2017-08-07T05:10:51.715Z,8.33
2017-08-07T05:13:19.029Z,9.27
2017-08-07T05:15:46.382Z,11.77
2017-08-07T05:18:13.719Z,7.87
2017-08-07T05:20:41.023Z,8.43
2017-08-07T05:23:08.343Z,8.40
2017-08-07T05:25:35.685Z,10.33
2017-08-07T05:28:03.030Z,8.47
2017-08-07T05:30:30.382Z,6.83
2017-08-07T05:32:57.703Z,10.10
2017-08-07T05:35:24.989Z,9.30
2017-08-07T05:37:52.346Z,15.93
2017-08-07T05:40:20.037Z,12.37
2017-08-07T05:42:47.333Z,18.50
2017-08-07T05:45:14.635Z,17.67
2017-08-07T05:47:41.949Z,15.83
2017-08-07T05:50:09.275Z,16.83
2017-08-07T05:52:36.582Z,14.90
2017-08-07T05:55:03.907Z,15.90
2017-08-07T05:57:31.225Z,11.23
2017-08-07T05:59:58.565Z,8.97
2017-08-07T06:02:25.904Z,8.90
2017-08-07T06:04:53.285Z,11.03
2017-08-07T06:07:20.577Z,8.83
2017-08-07T06:09:47.897Z,12.27
2017-08-07T06:12:15.183Z,9.33
2017-08-07T06:14:42.526Z,8.10
2017-08-07T06:17:09.844Z,11.67
2017-08-07T06:19:37.153Z,10.73
2017-08-07T06:22:04.469Z,8.03
2017-08-07T06:24:31.818Z,8.53
2017-08-07T06:26:59.136Z,14.00
2017-08-07T06:29:26.480Z,14.13
2017-08-07T06:31:53.772Z,7.67
2017-08-07T06:34:21.108Z,12.50
2017-08-07T06:36:48.388Z,9.87
2017-08-07T06:39:15.741Z,8.13
2017-08-07T06:41:43.074Z,8.20
2017-08-07T06:44:10.417Z,11.67
2017-08-07T06:46:37.729Z,7.97
2017-08-07T06:49:05.037Z,8.83
2017-08-07T06:51:32.333Z,6.63
2017-08-07T06:53:59.677Z,6.87
2017-08-07T06:56:27.015Z,7.60
2017-08-07T06:58:54.333Z,6.30
2017-08-07T07:01:21.633Z,8.67
2017-08-07T07:03:48.935Z,6.90
2017-08-07T07:06:16.278Z,8.10
2017-08-07T07:08:43.604Z,8.07
2017-08-07T07:11:10.914Z,4.93
2017-08-07T07:13:38.195Z,5.23
2017-08-07T07:16:05.563Z,8.43
2017-08-07T07:18:32.859Z,7.07
2017-08-07T07:21:00.184Z,7.20
2017-08-07T07:23:27.745Z,6.50
2017-08-07T07:25:55.062Z,5.30
2017-08-07T07:28:22.347Z,14.03
2017-08-07T07:30:49.669Z,8.13
2017-08-07T07:33:16.967Z,6.63
2017-08-07T07:35:44.280Z,5.47
2017-08-07T07:38:11.601Z,6.07
2017-08-07T07:40:38.887Z,7.50
2017-08-07T07:43:06.199Z,7.10
2017-08-07T07:45:33.511Z,9.47
2017-08-07T07:48:00.822Z,4.23
2017-08-07T07:50:28.134Z,3.90
2017-08-07T07:52:55.459Z,10.53
2017-08-07T07:55:22.775Z,12.33
2017-08-07T07:57:50.351Z,4.50
2017-08-07T08:00:17.699Z,4.77
2017-08-07T08:02:45.030Z,6.80
2017-08-07T08:05:12.347Z,7.37
2017-08-07T08:07:39.735Z,5.00
2017-08-07T08:10:07.031Z,5.17
2017-08-07T08:12:34.356Z,4.17
2017-08-07T08:15:01.641Z,5.27
2017-08-07T08:17:28.962Z,5.23
2017-08-07T08:19:56.291Z,5.10
2017-08-07T08:22:23.602Z,5.63
2017-08-07T08:24:50.907Z,4.13
2017-08-07T08:27:18.225Z,3.83
2017-08-07T08:29:45.607Z,5.27
2017-08-07T08:32:12.926Z,4.20
2017-08-07T08:34:40.606Z,4.60
2017-08-07T08:37:07.925Z,5.33
2017-08-07T08:39:35.237Z,4.10
2017-08-07T08:42:02.576Z,4.10
2017-08-07T08:44:29.881Z,6.20
2017-08-07T08:46:57.175Z,5.73
2017-08-07T08:49:24.503Z,3.40
2017-08-07T08:51:51.846Z,3.90
2017-08-07T08:54:19.167Z,4.80
2017-08-07T08:56:46.547Z,6.27
2017-08-07T08:59:13.879Z,4.80
2017-08-07T09:01:41.180Z,7.13
2017-08-07T09:04:08.479Z,3.63
2017-08-07T09:06:35.796Z,4.93
2017-08-07T09:09:03.454Z,4.90
2017-08-07T09:11:30.775Z,5.40
2017-08-07T09:13:58.090Z,4.33
2017-08-07T09:16:25.377Z,5.47
2017-08-07T09:18:52.679Z,5.40
2017-08-07T09:21:20.421Z,7.47
2017-08-07T09:23:47.718Z,4.43
2017-08-07T09:26:15.056Z,4.20
2017-08-07T09:28:42.382Z,5.00
2017-08-07T09:31:09.721Z,4.70
2017-08-07T09:33:37.042Z,3.30
2017-08-07T09:36:04.363Z,3.87
2017-08-07T09:38:31.696Z,5.23
2017-08-07T09:40:59.035Z,4.57
2017-08-07T09:43:26.872Z,3.67
2017-08-07T09:45:54.154Z,3.97
2017-08-07T09:48:21.501Z,3.57
2017-08-07T09:50:48.795Z,3.40
2017-08-07T09:53:16.098Z,4.30
2017-08-07T09:55:43.465Z,4.50
2017-08-07T09:58:10.749Z,8.67
2017-08-07T10:00:38.106Z,2.73
2017-08-07T10:03:05.449Z,3.93
2017-08-07T10:05:32.753Z,3.10
2017-08-07T10:08:00.039Z,4.20
2017-08-07T10:10:27.391Z,6.30
2017-08-07T10:12:54.674Z,2.93
2017-08-07T10:15:21.969Z,3.10
2017-08-07T10:17:49.304Z,3.80
2017-08-07T10:20:16.629Z,5.80
2017-08-07T10:22:43.966Z,2.90
2017-08-07T10:25:11.272Z,3.20
2017-08-07T10:27:38.621Z,4.53
2017-08-07T10:30:05.930Z,2.43
2017-08-07T10:32:33.374Z,4.87
2017-08-07T10:35:00.779Z,6.73
2017-08-07T10:37:28.084Z,3.13
2017-08-07T10:39:55.382Z,4.63
2017-08-07T10:42:22.745Z,3.70
2017-08-07T10:44:50.342Z,6.60
2017-08-07T10:47:17.667Z,3.73
2017-08-07T10:49:44.953Z,3.57
2017-08-07T10:52:12.293Z,6.23
2017-08-07T10:54:39.628Z,2.80
2017-08-07T10:57:06.976Z,5.13
2017-08-07T10:59:34.289Z,4.97
2017-08-07T11:02:01.602Z,3.00
2017-08-07T11:04:28.973Z,2.40
2017-08-07T11:06:56.284Z,3.53
2017-08-07T11:09:23.653Z,3.00
2017-08-07T11:11:50.988Z,3.27
2017-08-07T11:14:18.285Z,3.30
2017-08-07T11:16:45.578Z,7.77
2017-08-07T11:19:12.902Z,3.17
2017-08-07T11:21:40.208Z,3.17
2017-08-07T11:24:07.523Z,2.47
2017-08-07T11:26:35.052Z,2.90
2017-08-07T11:29:02.415Z,2.80
2017-08-07T11:31:29.755Z,3.43
2017-08-07T11:33:57.126Z,4.73
2017-08-07T11:36:24.439Z,2.90
2017-08-07T11:38:52.083Z,2.40
2017-08-07T11:41:19.402Z,3.63
2017-08-07T11:43:46.714Z,2.57
2017-08-07T11:46:14.013Z,3.50
2017-08-07T11:48:41.322Z,2.30
2017-08-07T11:51:08.612Z,3.20
2017-08-07T11:53:35.926Z,4.20
2017-08-07T11:56:03.249Z,2.63
2017-08-07T11:58:30.575Z,4.33
2017-08-07T12:00:57.885Z,2.40
2017-08-07T12:03:25.283Z,3.10
2017-08-07T12:05:52.611Z,2.50
2017-08-07T12:08:19.914Z,5.03
2017-08-07T12:10:47.245Z,4.03
2017-08-07T12:13:14.534Z,3.60
2017-08-07T12:15:41.839Z,3.17
2017-08-07T12:18:09.137Z,2.57
2017-08-07T12:20:36.457Z,2.40
2017-08-07T12:23:03.785Z,2.67
2017-08-07T12:25:31.155Z,2.40
2017-08-07T12:27:58.483Z,5.63
2017-08-07T12:30:25.828Z,2.53
2017-08-07T12:32:53.125Z,2.40
2017-08-07T12:35:20.718Z,2.63
2017-08-07T12:37:48.039Z,3.63
2017-08-07T12:40:15.340Z,2.33
2017-08-07T12:42:42.620Z,2.27
2017-08-07T12:45:09.917Z,2.17
2017-08-07T12:47:37.230Z,5.00
2017-08-07T12:50:04.546Z,2.33
2017-08-07T12:52:31.885Z,2.87
2017-08-07T12:54:59.180Z,2.77
2017-08-07T12:57:26.479Z,2.27
2017-08-07T12:59:53.811Z,2.50
2017-08-07T13:02:21.125Z,3.40
2017-08-07T13:04:48.404Z,5.13
2017-08-07T13:07:15.725Z,2.47
2017-08-07T13:09:43.017Z,2.20
2017-08-07T13:12:10.633Z,4.10
2017-08-07T13:14:37.945Z,3.20
2017-08-07T13:17:05.252Z,3.40
2017-08-07T13:19:32.549Z,2.20
2017-08-07T13:21:59.858Z,2.67
2017-08-07T13:24:27.171Z,2.60
2017-08-07T13:26:54.486Z,2.47
2017-08-07T13:29:21.780Z,2.00
2017-08-07T13:31:49.088Z,2.27
2017-08-07T13:34:16.371Z,4.22
2017-08-07T13:36:43.659Z,1.87
2017-08-07T13:39:10.963Z,6.95
2017-08-07T13:41:38.261Z,1.80
2017-08-07T13:44:05.572Z,3.58
2017-08-07T13:46:32.881Z,1.70
2017-08-07T13:49:00.180Z,2.17
2017-08-07T13:51:27.475Z,1.87
2017-08-07T13:53:54.778Z,3.73
2017-08-07T13:56:22.063Z,1.90
2017-08-07T13:58:49.411Z,1.90
2017-08-07T14:01:16.734Z,2.00
2017-08-07T14:03:44.051Z,2.00
2017-08-07T14:06:11.349Z,2.50
2017-08-07T14:08:38.644Z,1.75
2017-08-07T14:11:05.960Z,1.80
2017-08-07T14:13:33.253Z,2.00
2017-08-07T14:16:00.591Z,2.75
2017-08-07T14:18:27.905Z,2.55
2017-08-07T14:20:55.455Z,3.45
2017-08-07T14:23:22.768Z,1.80
2017-08-07T14:25:50.089Z,4.10
2017-08-07T14:28:17.397Z,2.30
2017-08-07T14:30:44.730Z,2.47
2017-08-07T14:33:12.027Z,2.03
2017-08-07T14:35:39.348Z,2.00
2017-08-07T14:38:06.638Z,2.12
2017-08-07T14:40:33.948Z,2.33
2017-08-07T14:43:01.241Z,2.00
2017-08-07T14:45:28.568Z,2.20
2017-08-07T14:47:55.852Z,2.78
2017-08-07T14:50:23.208Z,2.20
2017-08-07T14:52:50.919Z,2.33
2017-08-07T14:55:18.249Z,3.55
2017-08-07T14:57:45.539Z,2.72
2017-08-07T15:00:12.829Z,2.03
2017-08-07T15:02:40.142Z,6.28
2017-08-07T15:05:07.423Z,5.03
2017-08-07T15:07:34.765Z,2.42
2017-08-07T15:10:02.178Z,1.90
2017-08-07T15:12:29.644Z,1.98
2017-08-07T15:14:56.945Z,2.00
2017-08-07T15:17:24.258Z,1.92
2017-08-07T15:19:51.562Z,1.80
2017-08-07T15:22:18.852Z,2.08
2017-08-07T15:24:46.175Z,1.87
2017-08-07T15:27:13.502Z,2.28
2017-08-07T15:29:40.837Z,1.65
2017-08-07T15:32:08.171Z,2.08
2017-08-07T15:34:35.494Z,1.90
2017-08-07T15:37:02.788Z,2.12
2017-08-07T15:39:30.082Z,1.75
2017-08-07T15:41:57.397Z,2.10
2017-08-07T15:44:24.777Z,1.92
2017-08-07T15:46:52.069Z,1.95
2017-08-07T15:49:19.391Z,2.20
2017-08-07T15:51:46.679Z,1.85
2017-08-07T15:54:14.057Z,2.30
2017-08-07T15:56:41.365Z,6.90
2017-08-07T15:59:08.719Z,2.00
2017-08-07T16:01:36.052Z,2.35
2017-08-07T16:04:03.378Z,3.22
2017-08-07T16:06:30.680Z,1.80
2017-08-07T16:08:58.013Z,2.53
2017-08-07T16:11:25.611Z,2.35
2017-08-07T16:13:52.926Z,2.75
2017-08-07T16:16:20.230Z,2.17
2017-08-07T16:18:47.866Z,2.20
2017-08-07T16:21:15.189Z,1.90
2017-08-07T16:23:42.511Z,2.05
2017-08-07T16:26:09.824Z,2.75
2017-08-07T16:28:37.950Z,2.20
2017-08-07T16:31:05.256Z,2.15
2017-08-07T16:33:32.556Z,2.33
2017-08-07T16:35:59.855Z,3.80
2017-08-07T16:38:27.225Z,2.50
2017-08-07T16:40:54.529Z,2.30
2017-08-07T16:43:21.848Z,2.65
2017-08-07T16:45:49.159Z,2.30
2017-08-07T16:48:16.488Z,2.80
2017-08-07T16:50:43.859Z,2.37
2017-08-07T16:53:11.155Z,2.50
2017-08-07T16:55:38.466Z,2.80
2017-08-07T16:58:05.775Z,2.70
2017-08-07T17:00:33.094Z,2.53
2017-08-07T17:03:00.389Z,2.50
2017-08-07T17:05:27.704Z,2.90
2017-08-07T17:07:55.008Z,3.17
2017-08-07T17:10:23.397Z,2.65
2017-08-07T17:12:51.138Z,2.80
2017-08-07T17:15:18.461Z,2.70
2017-08-07T17:17:45.822Z,2.60
2017-08-07T17:20:13.156Z,2.85
2017-08-07T17:22:40.482Z,5.05
2017-08-07T17:25:07.795Z,2.78
2017-08-07T17:27:35.101Z,3.35
2017-08-07T17:30:02.393Z,4.90
2017-08-07T17:32:29.719Z,3.40
2017-08-07T17:34:57.023Z,3.15
2017-08-07T17:37:24.332Z,3.15
2017-08-07T17:39:51.653Z,2.90
2017-08-07T17:42:19.010Z,3.90
2017-08-07T17:44:46.338Z,4.10
2017-08-07T17:47:13.725Z,2.80
2017-08-07T17:49:41.046Z,4.63
2017-08-07T17:52:08.423Z,4.00
2017-08-07T17:54:35.709Z,4.05
2017-08-07T17:57:03.074Z,5.10
2017-08-07T17:59:30.397Z,4.20
2017-08-07T18:01:57.785Z,3.10
2017-08-07T18:04:25.076Z,2.63
2017-08-07T18:06:52.416Z,2.73
2017-08-07T18:09:19.849Z,4.07
2017-08-07T18:11:47.172Z,4.07
2017-08-07T18:14:14.492Z,4.00
2017-08-07T18:16:41.808Z,6.60
2017-08-07T18:19:09.200Z,4.30
2017-08-07T18:21:37.670Z,4.20
2017-08-07T18:24:04.983Z,4.73
2017-08-07T18:26:32.283Z,7.80
2017-08-07T18:28:59.609Z,6.30
2017-08-07T18:31:26.959Z,5.87
2017-08-07T18:33:54.315Z,4.63
2017-08-07T18:36:21.646Z,4.97
2017-08-07T18:38:49.496Z,8.97
2017-08-07T18:41:16.835Z,11.63
2017-08-07T18:43:44.190Z,10.50
2017-08-07T18:46:11.501Z,7.47
2017-08-07T18:48:38.817Z,5.57
2017-08-07T18:51:06.118Z,5.93
2017-08-07T18:53:33.471Z,7.37
2017-08-07T18:56:00.765Z,7.43
2017-08-07T18:58:28.095Z,5.63
2017-08-07T19:00:55.415Z,8.83
2017-08-07T19:03:22.723Z,6.13
2017-08-07T19:05:50.068Z,8.53
2017-08-07T19:08:17.406Z,7.70
2017-08-07T19:10:44.710Z,8.93
2017-08-07T19:13:12.013Z,5.93
2017-08-07T19:15:39.309Z,7.47
2017-08-07T19:18:06.691Z,7.50
2017-08-07T19:20:33.994Z,6.07
2017-08-07T19:23:01.301Z,7.20
2017-08-07T19:25:28.666Z,8.03
2017-08-07T19:27:56.019Z,7.00
2017-08-07T19:30:23.312Z,9.90
2017-08-07T19:32:50.639Z,7.83
2017-08-07T19:35:17.954Z,8.43
2017-08-07T19:37:45.259Z,7.03
2017-08-07T19:40:12.564Z,7.63
2017-08-07T19:42:39.874Z,7.77
2017-08-07T19:45:07.203Z,9.03
2017-08-07T19:47:34.554Z,7.27
2017-08-07T19:50:01.883Z,12.27
2017-08-07T19:52:29.233Z,11.73
2017-08-07T19:54:56.612Z,8.23
2017-08-07T19:57:23.892Z,7.10
2017-08-07T19:59:51.495Z,7.03
2017-08-07T20:02:18.800Z,10.43
2017-08-07T20:04:46.140Z,7.47
2017-08-07T20:07:13.446Z,11.50
2017-08-07T20:09:41.301Z,7.50
2017-08-07T20:12:08.763Z,8.50
2017-08-07T20:14:36.057Z,8.70
2017-08-07T20:17:03.366Z,8.90
2017-08-07T20:19:30.686Z,8.33
2017-08-07T20:21:58.041Z,7.80
2017-08-07T20:24:25.373Z,8.73
2017-08-07T20:26:52.718Z,9.80
2017-08-07T20:29:20.075Z,9.00
2017-08-07T20:31:47.405Z,11.13
2017-08-07T20:34:14.734Z,11.87
2017-08-07T20:36:42.061Z,10.93
2017-08-07T20:39:09.365Z,12.63
2017-08-07T20:41:36.691Z,13.30
2017-08-07T20:44:03.998Z,12.27
2017-08-07T20:46:31.358Z,14.27
2017-08-07T20:48:58.665Z,11.20
2017-08-07T20:51:26.158Z,13.73
2017-08-07T20:53:53.465Z,17.03
2017-08-07T20:56:20.857Z,11.93
2017-08-07T20:58:48.150Z,12.10
2017-08-07T21:01:15.471Z,14.63
2017-08-07T21:03:42.783Z,11.90
2017-08-07T21:06:10.091Z,13.23
2017-08-07T21:08:37.414Z,20.13
2017-08-07T21:11:04.771Z,17.40
2017-08-07T21:13:32.107Z,11.57
2017-08-07T21:15:59.449Z,11.50
2017-08-07T21:18:26.779Z,11.60
2017-08-07T21:20:54.106Z,12.43
2017-08-07T21:23:21.421Z,11.80
2017-08-07T21:25:48.816Z,9.27
2017-08-07T21:28:16.148Z,14.23
2017-08-07T21:30:43.550Z,13.30
2017-08-07T21:33:10.866Z,12.43
2017-08-07T21:35:38.181Z,13.80
2017-08-07T21:38:05.519Z,11.47
2017-08-07T21:40:32.846Z,15.30
2017-08-07T21:43:00.188Z,9.30
2017-08-07T21:45:27.524Z,11.33
2017-08-07T21:47:54.897Z,8.80
2017-08-07T21:50:22.228Z,10.07
2017-08-07T21:52:49.570Z,11.90
2017-08-07T21:55:16.868Z,8.47
2017-08-07T21:57:44.214Z,9.10
2017-08-07T22:00:11.506Z,12.00
2017-08-07T22:02:38.820Z,9.17
2017-08-07T22:05:06.145Z,8.17
2017-08-07T22:07:33.460Z,8.60
2017-08-07T22:10:00.783Z,9.10
2017-08-07T22:12:28.086Z,12.90
2017-08-07T22:14:55.426Z,8.40
2017-08-07T22:17:22.752Z,9.50
2017-08-07T22:19:50.066Z,9.63
2017-08-07T22:22:17.395Z,12.73
2017-08-07T22:24:44.718Z,9.70
2017-08-07T22:27:12.016Z,8.73
2017-08-07T22:29:39.336Z,9.30
2017-08-07T22:32:06.638Z,10.17
2017-08-07T22:34:33.967Z,7.73
2017-08-07T22:37:01.268Z,9.90
2017-08-07T22:39:28.596Z,9.30
2017-08-07T22:41:56.169Z,9.80
2017-08-07T22:44:23.485Z,10.70
2017-08-07T22:46:50.788Z,10.60
2017-08-07T22:49:18.096Z,7.63
2017-08-07T22:51:45.476Z,8.63
2017-08-07T22:54:12.778Z,9.77
2017-08-07T22:56:40.087Z,7.87
2017-08-07T22:59:07.559Z,12.47
2017-08-07T23:01:34.943Z,9.03
2017-08-07T23:04:02.519Z,9.10
2017-08-07T23:06:29.829Z,14.90
2017-08-07T23:08:57.124Z,8.00
2017-08-07T23:11:24.447Z,8.50
2017-08-07T23:13:51.749Z,8.83
2017-08-07T23:16:19.389Z,15.83
2017-08-07T23:18:46.693Z,8.70
2017-08-07T23:21:14.011Z,12.00
2017-08-07T23:23:41.306Z,9.57
2017-08-07T23:26:08.638Z,8.47
2017-08-07T23:28:35.971Z,11.47
2017-08-07T23:31:03.319Z,8.20
2017-08-07T23:33:30.756Z,8.90
2017-08-07T23:35:58.098Z,8.70
2017-08-07T23:38:25.433Z,8.23
2017-08-07T23:40:52.757Z,9.47
2017-08-07T23:43:20.078Z,8.87
2017-08-07T23:45:47.374Z,8.70
2017-08-07T23:48:14.706Z,9.10
2017-08-07T23:50:42.022Z,7.10
2017-08-07T23:53:09.338Z,8.87
2017-08-07T23:55:36.710Z,8.63
2017-08-07T23:58:04.026Z,14.27
